createdAt,value
2023-04-03T00:03:00.582Z,14.70
2023-04-03T00:06:04.176Z,14.70
2023-04-03T00:09:07.654Z,14.70
2023-04-03T00:12:12.096Z,14.70
2023-04-03T00:15:14.380Z,14.60
2023-04-03T00:18:16.726Z,14.70
2023-04-03T00:21:18.991Z,14.70
2023-04-03T00:24:21.261Z,14.60
2023-04-03T00:27:23.604Z,14.60
2023-04-03T00:30:26.139Z,14.60
2023-04-03T00:33:29.527Z,14.60
2023-04-03T00:36:31.994Z,14.60
2023-04-03T00:39:34.283Z,14.60
2023-04-03T00:42:38.711Z,14.70
2023-04-03T00:45:44.040Z,14.60
2023-04-03T00:48:48.674Z,14.60
2023-04-03T00:51:51.020Z,14.60
2023-04-03T00:54:58.048Z,14.60
2023-04-03T00:58:01.600Z,14.60
2023-04-03T01:01:09.435Z,14.60
2023-04-03T01:04:37.266Z,14.60
2023-04-03T01:07:40.575Z,14.60
2023-04-03T01:10:42.885Z,14.60
2023-04-03T01:13:45.587Z,14.60
2023-04-03T01:16:55.010Z,14.60
2023-04-03T01:20:38.272Z,14.60
2023-04-03T01:23:48.796Z,14.60
2023-04-03T01:26:51.690Z,14.60
2023-04-03T01:29:54.045Z,14.60
2023-04-03T01:32:56.314Z,14.50
2023-04-03T01:35:58.741Z,14.50
2023-04-03T01:39:01.731Z,14.50
2023-04-03T01:42:05.636Z,14.50
2023-04-03T01:45:13.449Z,14.50
2023-04-03T01:48:16.666Z,14.50
2023-04-03T01:51:19.054Z,14.50
2023-04-03T01:54:21.464Z,14.50
2023-04-03T01:57:23.711Z,14.50
2023-04-03T02:00:26.048Z,14.50
2023-04-03T02:03:28.975Z,14.50
2023-04-03T02:06:31.365Z,14.50
2023-04-03T02:09:33.734Z,14.50
2023-04-03T02:12:36.220Z,14.50
2023-04-03T02:15:41.718Z,14.50
2023-04-03T02:18:44.248Z,14.50
2023-04-03T02:21:46.611Z,14.50
2023-04-03T02:24:50.930Z,14.50
2023-04-03T02:27:53.157Z,14.50
2023-04-03T02:30:55.528Z,14.50
2023-04-03T02:33:58.077Z,14.50
2023-04-03T02:37:00.394Z,14.50
2023-04-03T02:40:02.770Z,14.40
2023-04-03T02:43:05.196Z,14.40
2023-04-03T02:46:08.222Z,14.40
2023-04-03T02:49:11.073Z,14.40
2023-04-03T02:52:16.540Z,14.40
2023-04-03T02:55:18.967Z,14.40
2023-04-03T02:58:24.525Z,14.40
2023-04-03T03:01:32.568Z,14.40
2023-04-03T03:04:35.143Z,14.40
2023-04-03T03:07:37.358Z,14.40
2023-04-03T03:10:39.811Z,14.40
2023-04-03T03:13:43.373Z,14.40
2023-04-03T03:16:45.717Z,14.40
2023-04-03T03:19:48.089Z,14.40
2023-04-03T03:22:50.459Z,14.40
2023-04-03T03:26:00.950Z,14.40
2023-04-03T03:29:03.727Z,14.40
2023-04-03T03:32:06.059Z,14.40
2023-04-03T03:35:08.692Z,14.40
2023-04-03T03:38:11.141Z,14.30
2023-04-03T03:41:13.876Z,14.30
2023-04-03T03:44:17.981Z,14.30
2023-04-03T03:47:20.397Z,14.30
2023-04-03T03:50:22.970Z,14.30
2023-04-03T03:53:25.895Z,14.30
2023-04-03T03:56:32.069Z,14.30
2023-04-03T03:59:34.496Z,14.30
2023-04-03T04:02:37.089Z,14.30
2023-04-03T04:05:40.131Z,14.30
2023-04-03T04:08:43.277Z,14.30
2023-04-03T04:11:47.424Z,14.30
2023-04-03T04:14:51.673Z,14.30
2023-04-03T04:17:54.656Z,14.30
2023-04-03T04:20:57.700Z,14.30
2023-04-03T04:24:00.671Z,14.30
2023-04-03T04:27:03.224Z,14.20
2023-04-03T04:30:08.109Z,14.30
2023-04-03T04:33:11.264Z,14.20
2023-04-03T04:36:16.070Z,14.20
2023-04-03T04:39:20.845Z,14.30
2023-04-03T04:42:23.299Z,14.30
2023-04-03T04:45:26.335Z,14.30
2023-04-03T04:48:29.562Z,14.20
2023-04-03T04:51:40.927Z,14.20
2023-04-03T04:54:47.647Z,14.20
2023-04-03T04:57:50.040Z,14.20
2023-04-03T05:01:03.772Z,14.20
2023-04-03T05:04:07.842Z,14.20
2023-04-03T05:07:10.486Z,14.20
2023-04-03T05:10:13.690Z,14.20
2023-04-03T05:13:16.665Z,14.20
2023-04-03T05:16:19.220Z,14.20
2023-04-03T05:19:22.729Z,14.10
2023-04-03T05:22:25.030Z,14.10
2023-04-03T05:25:30.657Z,14.10
2023-04-03T05:28:33.227Z,14.20
2023-04-03T05:31:36.100Z,14.20
2023-04-03T05:34:39.211Z,14.10
2023-04-03T05:37:42.031Z,14.10
2023-04-03T05:40:44.853Z,14.10
2023-04-03T05:43:47.236Z,14.20
2023-04-03T05:46:50.085Z,14.10
2023-04-03T05:49:52.613Z,14.10
2023-04-03T05:52:59.979Z,14.10
2023-04-03T05:56:05.190Z,14.10
2023-04-03T05:59:12.975Z,14.10
2023-04-03T06:02:21.754Z,14.10
2023-04-03T06:05:25.102Z,14.10
2023-04-03T06:08:27.382Z,14.10
2023-04-03T06:11:29.746Z,14.10
2023-04-03T06:14:32.058Z,14.10
2023-04-03T06:17:34.273Z,14.10
2023-04-03T06:20:36.934Z,14.10
2023-04-03T06:23:39.652Z,14.10
2023-04-03T06:26:41.972Z,14.10
2023-04-03T06:29:46.154Z,14.00
2023-04-03T06:32:48.352Z,14.00
2023-04-03T06:35:50.826Z,14.10
2023-04-03T06:38:53.099Z,14.10
2023-04-03T06:41:55.277Z,14.10
2023-04-03T06:45:06.369Z,14.10
2023-04-03T06:48:08.766Z,14.00
2023-04-03T06:51:21.821Z,14.10
2023-04-03T06:54:24.162Z,14.10
2023-04-03T06:57:26.795Z,14.10
2023-04-03T07:00:29.554Z,14.10
2023-04-03T07:03:32.386Z,14.10
2023-04-03T07:06:36.361Z,14.10
2023-04-03T07:09:38.768Z,14.10
2023-04-03T07:12:41.173Z,14.10
2023-04-03T07:15:43.449Z,14.10
2023-04-03T07:18:46.804Z,14.10
2023-04-03T07:21:49.305Z,14.10
2023-04-03T07:24:51.847Z,14.10
2023-04-03T07:27:55.596Z,14.10
2023-04-03T07:31:24.199Z,14.10
2023-04-03T07:34:26.642Z,14.10
2023-04-03T07:37:29.108Z,14.10
2023-04-03T07:40:31.320Z,14.10
2023-04-03T07:43:33.966Z,14.20
2023-04-03T07:46:36.301Z,14.10
2023-04-03T07:49:40.848Z,14.20
2023-04-03T07:52:43.265Z,14.20
2023-04-03T07:55:48.509Z,14.20
2023-04-03T07:58:50.790Z,14.20
2023-04-03T08:01:53.012Z,14.20
2023-04-03T08:04:55.297Z,14.30
2023-04-03T08:07:57.509Z,14.30
2023-04-03T08:11:01.595Z,14.30
2023-04-03T08:14:03.878Z,14.30
2023-04-03T08:17:06.648Z,14.30
2023-04-03T08:20:11.139Z,14.30
2023-04-03T08:23:13.500Z,14.40
2023-04-03T08:26:17.769Z,14.40
2023-04-03T08:29:20.025Z,14.40
2023-04-03T08:32:22.254Z,14.40
2023-04-03T08:35:24.444Z,14.40
2023-04-03T08:38:26.825Z,14.40
2023-04-03T08:41:36.899Z,14.50
2023-04-03T08:44:43.378Z,14.50
2023-04-03T08:48:06.971Z,14.50
2023-04-03T08:51:18.297Z,14.50
2023-04-03T08:54:34.030Z,14.50
2023-04-03T08:57:43.355Z,14.50
2023-04-03T09:01:05.262Z,14.60
2023-04-03T09:04:21.229Z,14.60
2023-04-03T09:07:34.275Z,14.60
2023-04-03T09:10:40.046Z,14.60
2023-04-03T09:13:58.488Z,14.60
2023-04-03T09:17:04.152Z,14.60
2023-04-03T09:20:20.618Z,14.70
2023-04-03T09:23:32.153Z,14.70
2023-04-03T09:27:13.273Z,14.70
2023-04-03T09:30:26.835Z,14.70
2023-04-03T09:33:31.387Z,14.70
2023-04-03T09:36:45.236Z,14.70
2023-04-03T09:39:56.080Z,14.70
2023-04-03T09:43:02.070Z,14.80
2023-04-03T09:46:24.854Z,14.80
2023-04-03T09:49:28.012Z,14.80
2023-04-03T09:52:30.373Z,14.80
2023-04-03T09:55:32.822Z,14.80
2023-04-03T09:58:50.354Z,14.80
2023-04-03T10:02:03.255Z,14.80
2023-04-03T10:05:26.712Z,14.90
2023-04-03T10:08:38.027Z,14.90
2023-04-03T10:12:06.303Z,14.90
2023-04-03T10:15:18.265Z,14.90
2023-04-03T10:18:50.738Z,14.90
2023-04-03T10:22:01.725Z,14.90
2023-04-03T10:25:22.365Z,14.90
2023-04-03T10:28:39.652Z,14.90
2023-04-03T10:31:57.910Z,15.00
2023-04-03T10:35:14.193Z,15.00
2023-04-03T10:38:31.197Z,15.00
2023-04-03T10:42:17.377Z,15.00
2023-04-03T10:45:55.063Z,15.00
2023-04-03T10:49:16.201Z,15.00
2023-04-03T10:52:39.961Z,15.00
2023-04-03T10:55:51.193Z,15.00
2023-04-03T10:59:19.811Z,15.00
2023-04-03T11:02:37.868Z,15.00
2023-04-03T11:05:51.704Z,15.00
2023-04-03T11:09:11.787Z,15.00
2023-04-03T11:12:49.941Z,15.00
2023-04-03T11:15:55.153Z,15.10
2023-04-03T11:19:15.798Z,15.10
2023-04-03T11:22:40.241Z,15.10
2023-04-03T11:25:45.848Z,15.10
2023-04-03T11:28:53.356Z,15.10
2023-04-03T11:32:20.106Z,15.10
2023-04-03T11:35:23.751Z,15.10
2023-04-03T11:38:37.390Z,15.10
2023-04-03T11:41:39.838Z,15.10
2023-04-03T11:44:42.594Z,15.10
2023-04-03T11:47:51.130Z,15.10
2023-04-03T11:50:54.136Z,15.10
2023-04-03T11:54:42.159Z,15.10
2023-04-03T11:58:08.360Z,15.10
2023-04-03T12:01:12.577Z,15.10
2023-04-03T12:04:17.015Z,15.20
2023-04-03T12:07:21.135Z,15.10
2023-04-03T12:10:31.823Z,15.20
2023-04-03T12:13:35.752Z,15.10
2023-04-03T12:16:40.744Z,15.20
2023-04-03T12:19:45.997Z,15.20
2023-04-03T12:23:24.276Z,15.20
2023-04-03T12:26:59.439Z,15.20
2023-04-03T12:30:05.837Z,15.20
2023-04-03T12:34:00.881Z,15.20
2023-04-03T12:37:18.390Z,15.20
2023-04-03T12:40:37.870Z,15.20
2023-04-03T12:44:00.436Z,15.20
2023-04-03T12:47:49.134Z,15.20
2023-04-03T12:50:51.939Z,15.10
2023-04-03T12:54:01.369Z,15.20
2023-04-03T12:57:25.689Z,15.20
2023-04-03T13:00:34.512Z,15.20
2023-04-03T13:03:41.070Z,15.20
2023-04-03T13:06:45.595Z,15.20
2023-04-03T13:09:57.426Z,15.20
2023-04-03T13:13:09.268Z,15.20
2023-04-03T13:16:12.863Z,15.20
2023-04-03T13:19:19.089Z,15.20
2023-04-03T13:22:27.229Z,15.20
2023-04-03T13:25:32.384Z,15.20
2023-04-03T13:28:36.399Z,15.20
2023-04-03T13:31:40.740Z,15.20
2023-04-03T13:34:47.071Z,15.20
2023-04-03T13:38:01.761Z,15.20
2023-04-03T13:41:29.996Z,15.20
2023-04-03T13:44:36.415Z,15.20
2023-04-03T13:47:44.774Z,15.20
2023-04-03T13:51:13.078Z,15.20
2023-04-03T13:54:40.254Z,15.20
2023-04-03T13:58:00.863Z,15.20
2023-04-03T14:01:21.529Z,15.20
2023-04-03T14:04:30.252Z,15.20
2023-04-03T14:07:32.669Z,15.20
2023-04-03T14:10:34.862Z,15.20
2023-04-03T14:13:37.050Z,15.20
2023-04-03T14:16:46.343Z,15.20
2023-04-03T14:19:49.832Z,15.20
2023-04-03T14:22:52.520Z,15.20
2023-04-03T14:25:56.001Z,15.20
2023-04-03T14:28:58.339Z,15.20
2023-04-03T14:32:13.870Z,15.20
2023-04-03T14:35:18.278Z,15.20
2023-04-03T14:38:27.485Z,15.20
2023-04-03T14:41:29.906Z,15.20
2023-04-03T14:44:32.624Z,15.20
2023-04-03T14:47:38.314Z,15.20
2023-04-03T14:50:42.339Z,15.20
2023-04-03T14:53:50.436Z,15.20
2023-04-03T14:56:54.188Z,15.20
2023-04-03T14:59:56.779Z,15.20
2023-04-03T15:02:59.048Z,15.20
2023-04-03T15:06:01.544Z,15.20
2023-04-03T15:09:04.418Z,15.20
2023-04-03T15:12:06.683Z,15.20
2023-04-03T15:15:09.721Z,15.20
2023-04-03T15:18:24.521Z,15.20
2023-04-03T15:21:26.811Z,15.30
2023-04-03T15:24:28.994Z,15.20
2023-04-03T15:27:31.362Z,15.30
2023-04-03T15:30:43.065Z,15.30
2023-04-03T15:33:45.339Z,15.30
2023-04-03T15:36:47.692Z,15.30
2023-04-03T15:39:49.903Z,15.40
2023-04-03T15:42:54.279Z,15.40
2023-04-03T15:46:00.839Z,15.40
2023-04-03T15:49:03.251Z,15.40
2023-04-03T15:52:05.745Z,15.40
2023-04-03T15:55:08.309Z,15.40
2023-04-03T15:58:12.079Z,15.40
2023-04-03T16:01:14.515Z,15.40
2023-04-03T16:04:18.072Z,15.40
2023-04-03T16:07:22.066Z,15.50
2023-04-03T16:10:24.585Z,15.50
2023-04-03T16:13:27.340Z,15.40
2023-04-03T16:16:29.727Z,15.40
2023-04-03T16:19:32.026Z,15.40
2023-04-03T16:22:34.489Z,15.40
2023-04-03T16:25:36.813Z,15.40
2023-04-03T16:28:39.129Z,15.40
2023-04-03T16:31:42.382Z,15.40
2023-04-03T16:34:45.086Z,15.40
2023-04-03T16:37:47.543Z,15.50
2023-04-03T16:40:50.467Z,15.40
2023-04-03T16:43:52.734Z,15.40
2023-04-03T16:46:54.984Z,15.40
2023-04-03T16:49:57.273Z,15.40
2023-04-03T16:52:59.617Z,15.40
2023-04-03T16:56:01.818Z,15.40
2023-04-03T16:59:04.094Z,15.40
2023-04-03T17:02:06.705Z,15.40
2023-04-03T17:05:09.417Z,15.40
2023-04-03T17:08:11.837Z,15.40
2023-04-03T17:11:14.766Z,15.40
2023-04-03T17:14:17.062Z,15.40
2023-04-03T17:17:24.397Z,15.40
2023-04-03T17:20:26.861Z,15.40
2023-04-03T17:23:29.925Z,15.40
2023-04-03T17:26:32.184Z,15.40
2023-04-03T17:29:34.477Z,15.40
2023-04-03T17:32:38.712Z,15.40
2023-04-03T17:35:41.259Z,15.40
2023-04-03T17:38:43.692Z,15.40
2023-04-03T17:41:46.135Z,15.40
2023-04-03T17:44:48.277Z,15.40
2023-04-03T17:47:52.543Z,15.40
2023-04-03T17:50:54.798Z,15.40
2023-04-03T17:53:57.000Z,15.40
2023-04-03T17:56:59.240Z,15.40
2023-04-03T18:00:01.571Z,15.40
2023-04-03T18:03:04.192Z,15.40
2023-04-03T18:06:08.931Z,15.40
2023-04-03T18:09:21.067Z,15.30
2023-04-03T18:12:23.666Z,15.30
2023-04-03T18:15:26.068Z,15.30
2023-04-03T18:18:28.445Z,15.30
2023-04-03T18:21:30.631Z,15.30
2023-04-03T18:24:36.761Z,15.30
2023-04-03T18:27:39.892Z,15.30
2023-04-03T18:30:43.370Z,15.30
2023-04-03T18:33:46.181Z,15.30
2023-04-03T18:36:49.329Z,15.30
2023-04-03T18:39:51.824Z,15.30
2023-04-03T18:42:54.076Z,15.30
2023-04-03T18:45:56.671Z,15.30
2023-04-03T18:48:59.913Z,15.30
2023-04-03T18:52:02.713Z,15.30
2023-04-03T18:55:06.673Z,15.30
2023-04-03T18:58:09.123Z,15.30
2023-04-03T19:01:12.194Z,15.30
2023-04-03T19:04:14.651Z,15.30
2023-04-03T19:07:16.845Z,15.30
2023-04-03T19:10:20.230Z,15.30
2023-04-03T19:13:22.735Z,15.30
2023-04-03T19:16:25.261Z,15.30
2023-04-03T19:19:27.604Z,15.30
2023-04-03T19:22:30.747Z,15.30
2023-04-03T19:25:33.033Z,15.30
2023-04-03T19:28:35.595Z,15.20
2023-04-03T19:31:38.249Z,15.20
2023-04-03T19:34:40.560Z,15.20
2023-04-03T19:37:42.978Z,15.20
2023-04-03T19:40:45.869Z,15.20
2023-04-03T19:43:50.579Z,15.20
2023-04-03T19:46:53.491Z,15.20
2023-04-03T19:49:55.729Z,15.20
2023-04-03T19:52:58.021Z,15.20
2023-04-03T19:56:01.298Z,15.20
2023-04-03T19:59:03.525Z,15.20
2023-04-03T20:02:06.033Z,15.20
2023-04-03T20:05:08.820Z,15.20
2023-04-03T20:08:11.537Z,15.20
2023-04-03T20:11:14.147Z,15.20
2023-04-03T20:14:17.621Z,15.10
2023-04-03T20:17:19.919Z,15.10
2023-04-03T20:20:22.127Z,15.10
2023-04-03T20:23:25.628Z,15.10
2023-04-03T20:26:31.784Z,15.10
2023-04-03T20:29:36.816Z,15.10
2023-04-03T20:32:39.777Z,15.10
2023-04-03T20:35:42.049Z,15.10
2023-04-03T20:38:44.691Z,15.10
2023-04-03T20:41:46.995Z,15.10
2023-04-03T20:44:50.168Z,15.10
2023-04-03T20:47:54.198Z,15.10
2023-04-03T20:50:57.028Z,15.10
2023-04-03T20:53:59.595Z,15.10
2023-04-03T20:57:02.776Z,15.10
2023-04-03T21:00:07.485Z,15.10
2023-04-03T21:03:10.112Z,15.10
2023-04-03T21:06:50.882Z,15.10
2023-04-03T21:10:30.779Z,15.00
2023-04-03T21:14:10.412Z,15.10
2023-04-03T21:17:12.555Z,15.00
2023-04-03T21:20:14.837Z,15.00
2023-04-03T21:23:17.425Z,15.00
2023-04-03T21:26:24.483Z,15.00
2023-04-03T21:29:26.624Z,15.00
2023-04-03T21:32:28.848Z,15.00
2023-04-03T21:35:31.022Z,15.00
2023-04-03T21:38:35.300Z,15.00
2023-04-03T21:41:37.808Z,15.00
2023-04-03T21:44:41.799Z,15.00
2023-04-03T21:47:44.985Z,15.00
2023-04-03T21:50:50.205Z,15.00
2023-04-03T21:53:53.953Z,15.00
2023-04-03T21:56:56.170Z,15.00
2023-04-03T21:59:58.617Z,14.90
2023-04-03T22:03:09.869Z,15.00
2023-04-03T22:06:15.079Z,15.00
2023-04-03T22:09:17.496Z,14.90
2023-04-03T22:12:19.764Z,14.90
2023-04-03T22:15:22.527Z,14.90
2023-04-03T22:18:24.865Z,14.90
2023-04-03T22:21:27.323Z,14.90
2023-04-03T22:24:29.572Z,14.90
2023-04-03T22:27:31.909Z,14.90
2023-04-03T22:30:34.267Z,14.90
2023-04-03T22:33:36.930Z,14.90
2023-04-03T22:36:39.087Z,14.90
2023-04-03T22:39:41.249Z,14.90
2023-04-03T22:42:46.388Z,14.80
2023-04-03T22:45:49.268Z,14.80
2023-04-03T22:48:52.441Z,14.80
2023-04-03T22:51:54.697Z,14.80
2023-04-03T22:55:01.394Z,14.80
2023-04-03T22:58:08.512Z,14.80
2023-04-03T23:01:12.433Z,14.80
2023-04-03T23:04:14.631Z,14.80
2023-04-03T23:07:17.520Z,14.80
2023-04-03T23:10:20.253Z,14.80
2023-04-03T23:13:23.211Z,14.80
2023-04-03T23:16:25.417Z,14.80
2023-04-03T23:19:27.818Z,14.80
2023-04-03T23:22:30.134Z,14.70
2023-04-03T23:25:32.289Z,14.70
2023-04-03T23:28:34.519Z,14.70
2023-04-03T23:31:36.762Z,14.70
2023-04-03T23:34:38.986Z,14.70
2023-04-03T23:37:41.412Z,14.70
2023-04-03T23:40:44.625Z,14.70
2023-04-03T23:43:47.713Z,14.70
2023-04-03T23:46:49.977Z,14.70
2023-04-03T23:49:52.198Z,14.70
2023-04-03T23:52:54.644Z,14.70
2023-04-03T23:55:56.878Z,14.70
2023-04-03T23:58:59.218Z,14.70
